Vinton, Texas
Current Conditions -  °F | °C
As of 6:58 AM on Saturday 22 Nov 2014 (Local Time) from KBIF Reporting Station
Overcast Overcast  
Wind Chill: 47°   Ceiling: 9500
Heat Index: 49°   Visibility: 10mi
Dew Point: 42°   Wind: 6mph
Humidity: 78%   Direction: 320°NW
Pressure: 30.03"   Gusts: NA
Location:  31.987°N, 106.594°W
Report Text: KBIF 221358Z AUTO 32005KT 10SM OVC095 10/06 A3003 RMK AO2 LTG DSNT E RAE1311 SLP137 P0000 T00950058 $
Loading
Personal Weather Stations






























Interactive Weather Map New forecast layout! Learn more

10-Day Weather Forecast

Advertisements
Track Severe Weather on mobile